createdAt,value
2023-01-15T00:04:06.539Z,5.50
2023-01-15T00:09:13.278Z,5.40
2023-01-15T00:14:15.593Z,5.50
2023-01-15T00:19:17.824Z,5.40
2023-01-15T00:24:38.408Z,5.50
2023-01-15T00:29:40.718Z,5.50
2023-01-15T00:34:42.900Z,5.50
2023-01-15T00:39:45.315Z,5.60
2023-01-15T00:44:47.709Z,5.60
2023-01-15T00:49:50.639Z,5.70
2023-01-15T00:55:03.860Z,5.70
2023-01-15T01:00:06.659Z,5.30
2023-01-15T01:05:09.273Z,4.90
2023-01-15T01:10:11.714Z,4.90
2023-01-15T01:15:13.919Z,4.90
2023-01-15T01:20:17.609Z,4.90
2023-01-15T01:25:23.228Z,5.00
2023-01-15T01:30:25.306Z,5.00
2023-01-15T01:35:27.437Z,4.90
2023-01-15T01:40:29.555Z,4.80
2023-01-15T01:45:33.625Z,4.90
2023-01-15T01:50:39.609Z,4.90
2023-01-15T01:55:41.837Z,5.00
2023-01-15T02:00:48.065Z,5.00
2023-01-15T02:05:55.117Z,5.00
2023-01-15T02:10:57.316Z,5.00
2023-01-15T02:16:24.355Z,5.00
2023-01-15T02:21:48.716Z,4.90
2023-01-15T02:27:09.184Z,5.00
2023-01-15T02:32:23.558Z,5.00
2023-01-15T02:37:28.754Z,5.00
2023-01-15T02:42:32.440Z,5.00
2023-01-15T02:47:38.714Z,5.00
2023-01-15T02:52:51.184Z,5.00
2023-01-15T02:57:59.407Z,5.00
2023-01-15T03:03:09.889Z,5.10
2023-01-15T03:08:13.900Z,5.10
2023-01-15T03:13:33.801Z,5.10
2023-01-15T03:18:50.655Z,5.00
2023-01-15T03:23:56.693Z,4.90
2023-01-15T03:29:03.195Z,4.90
2023-01-15T03:34:07.312Z,4.90
2023-01-15T03:39:10.048Z,4.80
2023-01-15T03:45:06.969Z,4.80
2023-01-15T03:50:37.545Z,4.90
2023-01-15T03:55:55.010Z,5.00
2023-01-15T04:01:02.412Z,5.00
2023-01-15T04:06:06.031Z,5.10
2023-01-15T04:11:09.604Z,5.20
2023-01-15T04:16:28.836Z,5.20
2023-01-15T04:21:31.342Z,5.30
2023-01-15T04:26:33.518Z,5.30
2023-01-15T04:31:37.103Z,5.20
2023-01-15T04:36:39.752Z,5.20
2023-01-15T04:42:00.849Z,5.30
2023-01-15T04:47:06.400Z,5.50
2023-01-15T04:52:08.642Z,5.70
2023-01-15T04:57:16.177Z,6.00
2023-01-15T05:02:18.642Z,6.20
2023-01-15T05:07:21.099Z,6.20
2023-01-15T05:12:24.617Z,6.30
2023-01-15T05:17:28.010Z,6.40
2023-01-15T05:22:30.160Z,6.50
2023-01-15T05:27:32.388Z,6.50
2023-01-15T05:32:35.050Z,6.60
2023-01-15T05:37:38.943Z,6.60
2023-01-15T05:42:42.170Z,6.60
2023-01-15T05:47:46.408Z,6.70
2023-01-15T05:52:54.642Z,6.80
2023-01-15T05:58:00.219Z,6.90
2023-01-15T06:03:03.565Z,7.00
2023-01-15T06:08:05.948Z,6.90
2023-01-15T06:13:08.623Z,6.70
2023-01-15T06:18:14.807Z,6.60
2023-01-15T06:23:18.317Z,6.60
2023-01-15T06:28:21.044Z,6.60
2023-01-15T06:33:23.882Z,6.60
2023-01-15T06:38:26.078Z,6.50
2023-01-15T06:43:47.940Z,6.50
2023-01-15T06:48:50.329Z,6.60
2023-01-15T06:53:55.559Z,6.70
2023-01-15T06:58:59.302Z,6.70
2023-01-15T07:04:10.787Z,6.70
2023-01-15T07:09:13.828Z,6.80
2023-01-15T07:14:39.975Z,6.70
2023-01-15T07:19:43.031Z,6.50
2023-01-15T07:24:46.456Z,6.30
2023-01-15T07:29:49.908Z,6.20
2023-01-15T07:34:52.100Z,6.20
2023-01-15T07:39:54.225Z,6.20
2023-01-15T07:45:14.941Z,6.20
2023-01-15T07:50:23.092Z,6.30
2023-01-15T07:55:25.397Z,6.20
2023-01-15T08:00:27.670Z,5.90
2023-01-15T08:05:29.834Z,5.70
2023-01-15T08:10:31.961Z,5.50
2023-01-15T08:15:38.750Z,5.50
2023-01-15T08:20:40.947Z,5.60
2023-01-15T08:25:43.183Z,5.70
2023-01-15T08:30:45.439Z,5.80
2023-01-15T08:35:47.582Z,5.90
2023-01-15T08:41:00.484Z,5.80
2023-01-15T08:46:05.172Z,5.70
2023-01-15T08:51:10.386Z,5.60
2023-01-15T08:56:17.409Z,5.80
2023-01-15T09:01:19.721Z,5.90
2023-01-15T09:06:21.873Z,5.80
2023-01-15T09:11:23.992Z,5.70
2023-01-15T09:16:27.787Z,5.70
2023-01-15T09:21:30.000Z,5.70
2023-01-15T09:26:35.309Z,5.90
2023-01-15T09:31:37.600Z,6.10
2023-01-15T09:36:41.373Z,6.30
2023-01-15T09:42:07.988Z,6.30
2023-01-15T09:47:36.594Z,6.30
2023-01-15T09:52:50.660Z,6.30
2023-01-15T09:57:57.289Z,6.50
2023-01-15T10:03:11.939Z,6.80
2023-01-15T10:08:23.994Z,6.90
2023-01-15T10:13:41.705Z,7.10
2023-01-15T10:18:43.850Z,7.40
2023-01-15T10:24:10.223Z,7.60
2023-01-15T10:29:21.774Z,7.70
2023-01-15T10:34:51.332Z,7.70
2023-01-15T10:40:22.287Z,7.90
2023-01-15T10:45:27.542Z,8.20
2023-01-15T10:50:29.721Z,8.40
2023-01-15T10:55:39.073Z,8.60
2023-01-15T11:00:41.287Z,8.70
2023-01-15T11:05:46.872Z,8.90
2023-01-15T11:10:48.994Z,8.90
2023-01-15T11:16:10.203Z,9.00
2023-01-15T11:21:21.100Z,9.00
2023-01-15T11:26:32.043Z,9.50
2023-01-15T11:31:41.756Z,9.40
2023-01-15T11:36:47.770Z,9.30
2023-01-15T11:42:18.860Z,9.30
2023-01-15T11:47:40.391Z,9.30
2023-01-15T11:52:47.991Z,9.30
2023-01-15T11:57:53.667Z,9.50
2023-01-15T12:03:08.313Z,9.30
2023-01-15T12:08:37.494Z,8.90
2023-01-15T12:14:09.084Z,8.60
2023-01-15T12:19:26.608Z,8.20
2023-01-15T12:25:15.302Z,8.00
2023-01-15T12:30:18.447Z,7.80
2023-01-15T12:35:30.662Z,7.30
2023-01-15T12:40:56.493Z,7.20
2023-01-15T12:46:01.868Z,7.40
2023-01-15T12:51:18.976Z,8.00
2023-01-15T12:56:49.421Z,8.50
2023-01-15T13:01:51.693Z,9.00
2023-01-15T13:07:04.059Z,9.10
2023-01-15T13:12:15.200Z,8.00
2023-01-15T13:17:56.151Z,7.00
2023-01-15T13:23:19.598Z,6.80
2023-01-15T13:28:40.678Z,6.80
2023-01-15T13:33:46.755Z,6.90
2023-01-15T13:39:13.252Z,6.90
2023-01-15T13:44:33.210Z,6.90
2023-01-15T13:49:48.188Z,6.90
2023-01-15T13:54:51.807Z,6.90
2023-01-15T13:59:54.103Z,6.90
2023-01-15T14:04:57.365Z,7.00
2023-01-15T14:10:31.546Z,7.00
2023-01-15T14:15:39.395Z,6.80
2023-01-15T14:21:02.718Z,6.60
2023-01-15T14:26:24.899Z,6.90
2023-01-15T14:31:30.064Z,7.10
2023-01-15T14:36:39.727Z,7.20
2023-01-15T14:42:01.986Z,7.20
2023-01-15T14:47:06.719Z,7.30
2023-01-15T14:52:09.400Z,7.40
2023-01-15T14:57:14.164Z,7.40
2023-01-15T15:02:25.652Z,7.40
2023-01-15T15:07:43.541Z,7.40
2023-01-15T15:13:08.169Z,7.40
2023-01-15T15:18:12.983Z,7.40
2023-01-15T15:23:30.344Z,7.40
2023-01-15T15:28:32.700Z,7.40
2023-01-15T15:33:40.598Z,7.40
2023-01-15T15:38:53.724Z,7.30
2023-01-15T15:44:16.618Z,7.20
2023-01-15T15:49:21.685Z,7.10
2023-01-15T15:54:28.409Z,7.10
2023-01-15T15:59:38.996Z,7.00
2023-01-15T16:04:52.435Z,7.00
2023-01-15T16:10:13.440Z,7.00
2023-01-15T16:15:30.943Z,6.90
2023-01-15T16:20:33.729Z,6.80
2023-01-15T16:25:42.530Z,6.80
2023-01-15T16:30:45.013Z,6.70
2023-01-15T16:35:48.152Z,6.60
2023-01-15T16:40:50.437Z,6.60
2023-01-15T16:46:18.555Z,6.60
2023-01-15T16:51:32.348Z,6.60
2023-01-15T16:56:39.892Z,6.60
2023-01-15T17:01:46.787Z,6.70
2023-01-15T17:07:15.222Z,6.70
2023-01-15T17:12:38.610Z,6.70
2023-01-15T17:17:41.934Z,6.70
2023-01-15T17:22:46.472Z,6.70
2023-01-15T17:27:48.807Z,6.70
2023-01-15T17:32:50.915Z,6.70
2023-01-15T17:37:53.114Z,6.60
2023-01-15T17:42:55.341Z,6.60
2023-01-15T17:47:57.847Z,6.50
2023-01-15T17:52:59.961Z,6.50
2023-01-15T17:58:20.834Z,6.50
2023-01-15T18:03:42.741Z,6.50
2023-01-15T18:08:53.758Z,6.50
2023-01-15T18:13:57.050Z,6.60
2023-01-15T18:18:59.193Z,6.60
2023-01-15T18:24:01.253Z,6.70
2023-01-15T18:29:04.026Z,6.80
2023-01-15T18:34:07.093Z,6.90
2023-01-15T18:39:12.726Z,6.90
2023-01-15T18:44:36.788Z,7.00
2023-01-15T18:49:43.675Z,7.00
2023-01-15T18:54:45.805Z,7.10
2023-01-15T18:59:48.324Z,7.10
2023-01-15T19:04:50.458Z,7.10
2023-01-15T19:09:54.871Z,7.20
2023-01-15T19:15:15.635Z,7.20
2023-01-15T19:20:19.251Z,7.20
2023-01-15T19:25:23.471Z,7.20
2023-01-15T19:30:27.438Z,7.20
2023-01-15T19:35:29.592Z,7.20
2023-01-15T19:40:36.506Z,7.20
2023-01-15T19:45:59.234Z,7.20
2023-01-15T19:51:02.344Z,7.30
2023-01-15T19:56:06.179Z,7.30
2023-01-15T20:01:15.580Z,7.30
2023-01-15T20:06:17.775Z,7.40
2023-01-15T20:11:19.844Z,7.50
2023-01-15T20:16:22.914Z,7.60
2023-01-15T20:21:25.107Z,7.60
2023-01-15T20:26:27.717Z,7.60
2023-01-15T20:31:29.856Z,7.80
2023-01-15T20:36:34.520Z,7.80
2023-01-15T20:41:56.160Z,7.90
2023-01-15T20:46:59.652Z,7.80
2023-01-15T20:52:02.199Z,7.90
2023-01-15T20:57:08.720Z,7.80
2023-01-15T21:02:11.938Z,7.80
2023-01-15T21:07:14.044Z,7.80
2023-01-15T21:12:17.198Z,7.90
2023-01-15T21:17:19.260Z,7.90
2023-01-15T21:22:24.223Z,7.80
2023-01-15T21:27:26.361Z,7.80
2023-01-15T21:32:28.915Z,7.70
2023-01-15T21:37:36.247Z,7.80
2023-01-15T21:42:56.784Z,7.90
2023-01-15T21:48:00.567Z,7.90
2023-01-15T21:53:02.842Z,8.00
2023-01-15T21:58:04.952Z,8.00
2023-01-15T22:03:07.001Z,8.00
2023-01-15T22:08:09.227Z,8.00
2023-01-15T22:13:11.345Z,8.00
2023-01-15T22:18:13.460Z,7.90
2023-01-15T22:23:15.551Z,7.80
2023-01-15T22:28:17.713Z,7.80
2023-01-15T22:33:19.806Z,7.80
2023-01-15T22:38:30.260Z,7.80
2023-01-15T22:43:34.386Z,7.90
2023-01-15T22:48:37.061Z,7.90
2023-01-15T22:53:39.159Z,7.70
2023-01-15T22:58:43.547Z,7.60
2023-01-15T23:03:45.892Z,7.50
2023-01-15T23:08:50.274Z,7.40
2023-01-15T23:13:52.912Z,7.40
2023-01-15T23:18:56.443Z,7.10
2023-01-15T23:24:01.025Z,7.10
2023-01-15T23:29:08.040Z,6.90
2023-01-15T23:34:11.074Z,6.90
2023-01-15T23:39:13.429Z,6.90
2023-01-15T23:44:39.517Z,7.00
2023-01-15T23:49:46.017Z,6.90
2023-01-15T23:54:51.623Z,6.90
2023-01-15T23:59:58.320Z,7.00
